sensor_id;sensor_type;location;lat;lon;timestamp;temperature;humidity
58638;DHT22;54976;51.510;7.522;2023-09-08T00:01:51;18.50;98.00
58638;DHT22;54976;51.510;7.522;2023-09-08T00:04:51;18.50;98.00
58638;DHT22;54976;51.510;7.522;2023-09-08T00:07:52;18.50;98.40
58638;DHT22;54976;51.510;7.522;2023-09-08T00:10:52;18.40;98.40
58638;DHT22;54976;51.510;7.522;2023-09-08T00:13:53;18.40;98.50
58638;DHT22;54976;51.510;7.522;2023-09-08T00:16:53;18.40;99.00
58638;DHT22;54976;51.510;7.522;2023-09-08T00:19:57;18.30;98.70
58638;DHT22;54976;51.510;7.522;2023-09-08T00:22:58;18.20;99.10
58638;DHT22;54976;51.510;7.522;2023-09-08T00:25:58;18.20;99.40
58638;DHT22;54976;51.510;7.522;2023-09-08T00:28:59;18.20;99.30
58638;DHT22;54976;51.510;7.522;2023-09-08T00:32:00;18.20;99.30
58638;DHT22;54976;51.510;7.522;2023-09-08T00:35:00;18.10;99.50
58638;DHT22;54976;51.510;7.522;2023-09-08T00:38:01;18.10;99.70
58638;DHT22;54976;51.510;7.522;2023-09-08T00:41:01;18.20;99.70
58638;DHT22;54976;51.510;7.522;2023-09-08T00:44:02;18.00;99.70
58638;DHT22;54976;51.510;7.522;2023-09-08T00:47:02;18.10;99.90
58638;DHT22;54976;51.510;7.522;2023-09-08T00:50:03;18.10;99.80
58638;DHT22;54976;51.510;7.522;2023-09-08T00:53:04;18.10;99.70
58638;DHT22;54976;51.510;7.522;2023-09-08T00:56:05;18.10;99.50
58638;DHT22;54976;51.510;7.522;2023-09-08T00:59:06;18.20;99.50
58638;DHT22;54976;51.510;7.522;2023-09-08T01:02:07;18.20;99.40
58638;DHT22;54976;51.510;7.522;2023-09-08T01:05:08;18.20;99.50
58638;DHT22;54976;51.510;7.522;2023-09-08T01:08:08;18.10;99.50
58638;DHT22;54976;51.510;7.522;2023-09-08T01:11:10;18.10;99.80
58638;DHT22;54976;51.510;7.522;2023-09-08T01:14:13;18.10;99.70
58638;DHT22;54976;51.510;7.522;2023-09-08T01:17:14;18.00;99.50
58638;DHT22;54976;51.510;7.522;2023-09-08T01:20:18;18.00;99.70
58638;DHT22;54976;51.510;7.522;2023-09-08T01:23:24;18.00;99.90
58638;DHT22;54976;51.510;7.522;2023-09-08T01:26:30;17.90;99.90
58638;DHT22;54976;51.510;7.522;2023-09-08T01:29:31;17.90;99.90
58638;DHT22;54976;51.510;7.522;2023-09-08T01:32:32;17.80;99.90
58638;DHT22;54976;51.510;7.522;2023-09-08T01:35:33;17.70;99.90
58638;DHT22;54976;51.510;7.522;2023-09-08T01:38:34;17.70;99.90
58638;DHT22;54976;51.510;7.522;2023-09-08T01:41:35;17.70;99.90
58638;DHT22;54976;51.510;7.522;2023-09-08T01:44:35;17.70;99.90
58638;DHT22;54976;51.510;7.522;2023-09-08T01:47:37;17.60;99.90
58638;DHT22;54976;51.510;7.522;2023-09-08T01:50:38;17.60;99.90
58638;DHT22;54976;51.510;7.522;2023-09-08T01:53:38;17.50;99.90
58638;DHT22;54976;51.510;7.522;2023-09-08T01:56:39;17.60;99.90
58638;DHT22;54976;51.510;7.522;2023-09-08T01:59:39;17.50;99.90
58638;DHT22;54976;51.510;7.522;2023-09-08T02:02:40;17.50;99.90
58638;DHT22;54976;51.510;7.522;2023-09-08T02:05:41;17.40;99.90
58638;DHT22;54976;51.510;7.522;2023-09-08T02:08:41;17.40;99.90
58638;DHT22;54976;51.510;7.522;2023-09-08T02:11:42;17.40;99.90
58638;DHT22;54976;51.510;7.522;2023-09-08T02:14:42;17.30;99.90
58638;DHT22;54976;51.510;7.522;2023-09-08T02:17:43;17.20;99.90
58638;DHT22;54976;51.510;7.522;2023-09-08T02:20:43;17.30;99.90
58638;DHT22;54976;51.510;7.522;2023-09-08T02:23:44;17.20;99.90
58638;DHT22;54976;51.510;7.522;2023-09-08T02:26:44;17.20;99.90
58638;DHT22;54976;51.510;7.522;2023-09-08T02:29:45;17.20;99.90
58638;DHT22;54976;51.510;7.522;2023-09-08T02:32:45;17.10;99.90
58638;DHT22;54976;51.510;7.522;2023-09-08T02:35:46;17.10;99.90
58638;DHT22;54976;51.510;7.522;2023-09-08T02:38:46;17.00;99.90
58638;DHT22;54976;51.510;7.522;2023-09-08T02:41:47;17.00;99.90
58638;DHT22;54976;51.510;7.522;2023-09-08T02:44:47;17.00;99.90
58638;DHT22;54976;51.510;7.522;2023-09-08T02:47:48;16.90;99.90
58638;DHT22;54976;51.510;7.522;2023-09-08T02:50:49;16.90;99.90
58638;DHT22;54976;51.510;7.522;2023-09-08T02:53:49;16.90;99.90
58638;DHT22;54976;51.510;7.522;2023-09-08T02:56:50;17.00;99.90
58638;DHT22;54976;51.510;7.522;2023-09-08T02:59:50;16.90;99.90
58638;DHT22;54976;51.510;7.522;2023-09-08T03:02:51;16.90;99.90
58638;DHT22;54976;51.510;7.522;2023-09-08T03:05:53;16.90;99.90
58638;DHT22;54976;51.510;7.522;2023-09-08T03:08:54;16.80;99.90
58638;DHT22;54976;51.510;7.522;2023-09-08T03:11:55;16.80;99.90
58638;DHT22;54976;51.510;7.522;2023-09-08T03:14:55;16.80;99.90
58638;DHT22;54976;51.510;7.522;2023-09-08T03:17:56;16.80;99.90
58638;DHT22;54976;51.510;7.522;2023-09-08T03:20:58;16.80;99.90
58638;DHT22;54976;51.510;7.522;2023-09-08T03:23:59;16.70;99.90
58638;DHT22;54976;51.510;7.522;2023-09-08T03:27:00;16.70;99.90
58638;DHT22;54976;51.510;7.522;2023-09-08T03:30:00;16.80;99.90
58638;DHT22;54976;51.510;7.522;2023-09-08T03:33:01;16.70;99.90
58638;DHT22;54976;51.510;7.522;2023-09-08T03:36:01;16.70;99.90
58638;DHT22;54976;51.510;7.522;2023-09-08T03:39:03;16.60;99.90
58638;DHT22;54976;51.510;7.522;2023-09-08T03:42:03;16.60;99.90
58638;DHT22;54976;51.510;7.522;2023-09-08T03:45:04;16.60;99.90
58638;DHT22;54976;51.510;7.522;2023-09-08T03:48:05;16.60;99.90
58638;DHT22;54976;51.510;7.522;2023-09-08T03:51:05;16.60;99.90
58638;DHT22;54976;51.510;7.522;2023-09-08T03:54:06;16.70;99.90
58638;DHT22;54976;51.510;7.522;2023-09-08T03:57:06;16.60;99.90
58638;DHT22;54976;51.510;7.522;2023-09-08T04:00:07;16.60;99.90
58638;DHT22;54976;51.510;7.522;2023-09-08T04:03:08;16.60;99.90
58638;DHT22;54976;51.510;7.522;2023-09-08T04:06:08;16.60;99.90
58638;DHT22;54976;51.510;7.522;2023-09-08T04:09:09;16.60;99.90
58638;DHT22;54976;51.510;7.522;2023-09-08T04:12:10;16.60;99.90
58638;DHT22;54976;51.510;7.522;2023-09-08T04:15:11;16.70;99.90
58638;DHT22;54976;51.510;7.522;2023-09-08T04:18:11;16.70;99.90
58638;DHT22;54976;51.510;7.522;2023-09-08T04:21:12;16.70;99.90
58638;DHT22;54976;51.510;7.522;2023-09-08T04:24:12;16.80;99.90
58638;DHT22;54976;51.510;7.522;2023-09-08T04:27:13;16.80;99.90
58638;DHT22;54976;51.510;7.522;2023-09-08T04:30:13;16.80;99.90
58638;DHT22;54976;51.510;7.522;2023-09-08T04:33:14;16.90;99.90
58638;DHT22;54976;51.510;7.522;2023-09-08T04:36:14;16.80;99.90
58638;DHT22;54976;51.510;7.522;2023-09-08T04:39:15;16.80;99.90
58638;DHT22;54976;51.510;7.522;2023-09-08T04:42:16;16.70;99.90
58638;DHT22;54976;51.510;7.522;2023-09-08T04:45:16;16.70;99.90
58638;DHT22;54976;51.510;7.522;2023-09-08T04:48:17;16.70;99.90
58638;DHT22;54976;51.510;7.522;2023-09-08T04:51:17;16.60;99.90
58638;DHT22;54976;51.510;7.522;2023-09-08T04:54:18;16.60;99.90
58638;DHT22;54976;51.510;7.522;2023-09-08T04:57:20;16.60;99.90
58638;DHT22;54976;51.510;7.522;2023-09-08T05:00:20;16.60;99.90
58638;DHT22;54976;51.510;7.522;2023-09-08T05:03:21;16.60;99.90
58638;DHT22;54976;51.510;7.522;2023-09-08T05:06:22;16.60;99.90
58638;DHT22;54976;51.510;7.522;2023-09-08T05:09:22;16.60;99.90
58638;DHT22;54976;51.510;7.522;2023-09-08T05:12:22;16.60;99.90
58638;DHT22;54976;51.510;7.522;2023-09-08T05:15:23;16.70;99.90
58638;DHT22;54976;51.510;7.522;2023-09-08T05:18:26;16.70;99.90
58638;DHT22;54976;51.510;7.522;2023-09-08T05:21:27;16.90;99.90
58638;DHT22;54976;51.510;7.522;2023-09-08T05:24:27;16.90;99.90
58638;DHT22;54976;51.510;7.522;2023-09-08T05:27:28;17.00;99.90
58638;DHT22;54976;51.510;7.522;2023-09-08T05:30:28;17.10;99.90
58638;DHT22;54976;51.510;7.522;2023-09-08T05:33:29;17.10;99.90
58638;DHT22;54976;51.510;7.522;2023-09-08T05:36:29;17.10;99.90
58638;DHT22;54976;51.510;7.522;2023-09-08T05:39:31;17.20;99.90
58638;DHT22;54976;51.510;7.522;2023-09-08T05:42:31;17.20;99.90
58638;DHT22;54976;51.510;7.522;2023-09-08T05:45:32;17.20;99.90
58638;DHT22;54976;51.510;7.522;2023-09-08T05:48:32;17.30;99.90
58638;DHT22;54976;51.510;7.522;2023-09-08T05:51:33;17.30;99.90
58638;DHT22;54976;51.510;7.522;2023-09-08T05:54:33;17.40;99.90
58638;DHT22;54976;51.510;7.522;2023-09-08T05:57:34;17.50;99.90
58638;DHT22;54976;51.510;7.522;2023-09-08T06:00:35;17.50;99.70
58638;DHT22;54976;51.510;7.522;2023-09-08T06:03:35;17.60;99.60
58638;DHT22;54976;51.510;7.522;2023-09-08T06:06:36;17.70;99.60
58638;DHT22;54976;51.510;7.522;2023-09-08T06:09:39;17.70;99.50
58638;DHT22;54976;51.510;7.522;2023-09-08T06:12:40;17.70;99.40
58638;DHT22;54976;51.510;7.522;2023-09-08T06:15:40;17.80;99.40
58638;DHT22;54976;51.510;7.522;2023-09-08T06:18:40;17.90;99.30
58638;DHT22;54976;51.510;7.522;2023-09-08T06:21:41;18.00;99.30
58638;DHT22;54976;51.510;7.522;2023-09-08T06:24:41;18.10;99.30
58638;DHT22;54976;51.510;7.522;2023-09-08T06:27:42;18.20;99.20
58638;DHT22;54976;51.510;7.522;2023-09-08T06:30:43;18.30;98.70
58638;DHT22;54976;51.510;7.522;2023-09-08T06:33:44;18.40;98.50
58638;DHT22;54976;51.510;7.522;2023-09-08T06:36:44;18.50;98.30
58638;DHT22;54976;51.510;7.522;2023-09-08T06:39:45;18.60;98.20
58638;DHT22;54976;51.510;7.522;2023-09-08T06:42:45;18.70;98.00
58638;DHT22;54976;51.510;7.522;2023-09-08T06:45:49;18.80;97.80
58638;DHT22;54976;51.510;7.522;2023-09-08T06:48:49;18.90;97.50
58638;DHT22;54976;51.510;7.522;2023-09-08T06:51:50;19.10;97.20
58638;DHT22;54976;51.510;7.522;2023-09-08T06:54:50;19.20;97.00
58638;DHT22;54976;51.510;7.522;2023-09-08T06:57:51;19.40;97.10
58638;DHT22;54976;51.510;7.522;2023-09-08T07:00:52;19.50;96.80
58638;DHT22;54976;51.510;7.522;2023-09-08T07:03:54;19.70;96.70
58638;DHT22;54976;51.510;7.522;2023-09-08T07:06:55;19.70;96.40
58638;DHT22;54976;51.510;7.522;2023-09-08T07:09:55;19.80;96.20
58638;DHT22;54976;51.510;7.522;2023-09-08T07:12:55;19.90;95.90
58638;DHT22;54976;51.510;7.522;2023-09-08T07:15:56;20.00;95.70
58638;DHT22;54976;51.510;7.522;2023-09-08T07:18:56;20.20;95.60
58638;DHT22;54976;51.510;7.522;2023-09-08T07:21:57;20.30;95.40
58638;DHT22;54976;51.510;7.522;2023-09-08T07:24:58;20.40;95.10
58638;DHT22;54976;51.510;7.522;2023-09-08T07:28:00;20.40;95.10
58638;DHT22;54976;51.510;7.522;2023-09-08T07:31:01;20.60;95.10
58638;DHT22;54976;51.510;7.522;2023-09-08T07:34:02;20.70;94.40
58638;DHT22;54976;51.510;7.522;2023-09-08T07:37:03;20.80;94.50
58638;DHT22;54976;51.510;7.522;2023-09-08T07:40:03;20.80;94.70
58638;DHT22;54976;51.510;7.522;2023-09-08T07:43:04;20.80;94.80
58638;DHT22;54976;51.510;7.522;2023-09-08T07:46:05;20.80;94.90
58638;DHT22;54976;51.510;7.522;2023-09-08T07:49:05;20.90;94.70
58638;DHT22;54976;51.510;7.522;2023-09-08T07:52:06;21.00;95.10
58638;DHT22;54976;51.510;7.522;2023-09-08T07:55:07;21.00;94.70
58638;DHT22;54976;51.510;7.522;2023-09-08T07:58:08;21.10;94.60
58638;DHT22;54976;51.510;7.522;2023-09-08T08:01:08;21.20;94.50
58638;DHT22;54976;51.510;7.522;2023-09-08T08:04:09;21.30;94.60
58638;DHT22;54976;51.510;7.522;2023-09-08T08:07:09;21.30;94.60
58638;DHT22;54976;51.510;7.522;2023-09-08T08:10:10;21.30;94.60
58638;DHT22;54976;51.510;7.522;2023-09-08T08:13:11;21.40;94.50
58638;DHT22;54976;51.510;7.522;2023-09-08T08:16:11;21.50;94.10
58638;DHT22;54976;51.510;7.522;2023-09-08T08:19:12;21.60;93.80
58638;DHT22;54976;51.510;7.522;2023-09-08T08:22:12;21.80;93.50
58638;DHT22;54976;51.510;7.522;2023-09-08T08:25:13;22.00;93.50
58638;DHT22;54976;51.510;7.522;2023-09-08T08:28:13;22.10;93.20
58638;DHT22;54976;51.510;7.522;2023-09-08T08:31:14;22.30;92.10
58638;DHT22;54976;51.510;7.522;2023-09-08T08:34:14;22.40;91.80
58638;DHT22;54976;51.510;7.522;2023-09-08T08:37:15;22.60;91.80
58638;DHT22;54976;51.510;7.522;2023-09-08T08:40:15;22.80;91.70
58638;DHT22;54976;51.510;7.522;2023-09-08T08:43:16;22.80;91.10
58638;DHT22;54976;51.510;7.522;2023-09-08T08:46:16;22.90;91.50
58638;DHT22;54976;51.510;7.522;2023-09-08T08:49:18;23.00;91.70
58638;DHT22;54976;51.510;7.522;2023-09-08T08:52:18;23.00;92.20
58638;DHT22;54976;51.510;7.522;2023-09-08T08:55:19;23.10;91.70
58638;DHT22;54976;51.510;7.522;2023-09-08T08:58:20;23.20;91.70
58638;DHT22;54976;51.510;7.522;2023-09-08T09:01:25;23.40;91.00
58638;DHT22;54976;51.510;7.522;2023-09-08T09:04:26;23.50;90.90
58638;DHT22;54976;51.510;7.522;2023-09-08T09:07:27;23.60;90.60
58638;DHT22;54976;51.510;7.522;2023-09-08T09:10:28;23.60;90.30
58638;DHT22;54976;51.510;7.522;2023-09-08T09:13:28;23.70;91.20
58638;DHT22;54976;51.510;7.522;2023-09-08T09:16:29;23.80;91.00
58638;DHT22;54976;51.510;7.522;2023-09-08T09:19:29;23.80;90.80
58638;DHT22;54976;51.510;7.522;2023-09-08T09:22:36;23.90;91.00
58638;DHT22;54976;51.510;7.522;2023-09-08T09:25:36;24.00;91.70
58638;DHT22;54976;51.510;7.522;2023-09-08T09:28:46;24.00;91.40
58638;DHT22;54976;51.510;7.522;2023-09-08T09:31:51;24.10;90.80
58638;DHT22;54976;51.510;7.522;2023-09-08T09:34:53;24.10;90.70
58638;DHT22;54976;51.510;7.522;2023-09-08T09:37:53;24.20;90.90
58638;DHT22;54976;51.510;7.522;2023-09-08T09:40:54;24.30;91.40
58638;DHT22;54976;51.510;7.522;2023-09-08T09:43:56;24.40;90.60
58638;DHT22;54976;51.510;7.522;2023-09-08T09:46:56;24.50;89.20
58638;DHT22;54976;51.510;7.522;2023-09-08T09:49:57;24.70;89.00
58638;DHT22;54976;51.510;7.522;2023-09-08T09:52:59;24.80;89.20
58638;DHT22;54976;51.510;7.522;2023-09-08T09:56:03;24.90;85.60
58638;DHT22;54976;51.510;7.522;2023-09-08T09:59:03;25.10;90.30
58638;DHT22;54976;51.510;7.522;2023-09-08T10:02:04;25.40;85.10
58638;DHT22;54976;51.510;7.522;2023-09-08T10:05:10;25.50;85.10
58638;DHT22;54976;51.510;7.522;2023-09-08T10:08:12;25.50;85.30
58638;DHT22;54976;51.510;7.522;2023-09-08T10:11:13;25.60;84.30
58638;DHT22;54976;51.510;7.522;2023-09-08T10:14:15;25.60;84.10
58638;DHT22;54976;51.510;7.522;2023-09-08T10:17:17;25.70;85.20
58638;DHT22;54976;51.510;7.522;2023-09-08T10:20:18;25.70;82.40
58638;DHT22;54976;51.510;7.522;2023-09-08T10:23:43;25.80;80.50
58638;DHT22;54976;51.510;7.522;2023-09-08T10:26:43;25.90;81.40
58638;DHT22;54976;51.510;7.522;2023-09-08T10:29:44;26.00;80.30
58638;DHT22;54976;51.510;7.522;2023-09-08T10:32:45;26.00;80.60
58638;DHT22;54976;51.510;7.522;2023-09-08T10:35:45;26.10;77.00
58638;DHT22;54976;51.510;7.522;2023-09-08T10:38:46;26.20;76.60
58638;DHT22;54976;51.510;7.522;2023-09-08T10:41:49;26.30;73.40
58638;DHT22;54976;51.510;7.522;2023-09-08T10:50:50;26.40;74.90
58638;DHT22;54976;51.510;7.522;2023-09-08T10:53:51;26.40;78.10
58638;DHT22;54976;51.510;7.522;2023-09-08T10:56:55;26.40;77.00
58638;DHT22;54976;51.510;7.522;2023-09-08T11:02:56;26.60;74.00
58638;DHT22;54976;51.510;7.522;2023-09-08T11:05:57;26.60;72.70
58638;DHT22;54976;51.510;7.522;2023-09-08T11:08:57;26.70;67.60
58638;DHT22;54976;51.510;7.522;2023-09-08T11:12:06;26.90;67.80
58638;DHT22;54976;51.510;7.522;2023-09-08T11:15:08;27.00;62.00
58638;DHT22;54976;51.510;7.522;2023-09-08T11:18:09;27.10;69.20
58638;DHT22;54976;51.510;7.522;2023-09-08T11:21:09;27.10;63.70
58638;DHT22;54976;51.510;7.522;2023-09-08T11:24:10;27.30;62.80
58638;DHT22;54976;51.510;7.522;2023-09-08T11:27:15;27.30;62.20
58638;DHT22;54976;51.510;7.522;2023-09-08T11:30:15;27.30;63.00
58638;DHT22;54976;51.510;7.522;2023-09-08T11:36:16;27.30;65.20
58638;DHT22;54976;51.510;7.522;2023-09-08T11:39:17;27.40;62.60
58638;DHT22;54976;51.510;7.522;2023-09-08T11:42:18;27.40;65.60
58638;DHT22;54976;51.510;7.522;2023-09-08T11:45:19;27.50;59.80
58638;DHT22;54976;51.510;7.522;2023-09-08T11:48:21;27.50;62.00
58638;DHT22;54976;51.510;7.522;2023-09-08T11:51:25;27.50;64.70
58638;DHT22;54976;51.510;7.522;2023-09-08T11:54:26;27.50;61.90
58638;DHT22;54976;51.510;7.522;2023-09-08T11:57:27;27.60;63.30
58638;DHT22;54976;51.510;7.522;2023-09-08T12:00:28;27.60;59.10
58638;DHT22;54976;51.510;7.522;2023-09-08T12:03:29;27.70;61.80
58638;DHT22;54976;51.510;7.522;2023-09-08T12:06:30;27.70;57.90
58638;DHT22;54976;51.510;7.522;2023-09-08T12:09:30;27.70;61.20
58638;DHT22;54976;51.510;7.522;2023-09-08T12:12:31;27.70;60.00
58638;DHT22;54976;51.510;7.522;2023-09-08T12:15:35;27.80;58.70
58638;DHT22;54976;51.510;7.522;2023-09-08T12:18:40;27.80;57.40
58638;DHT22;54976;51.510;7.522;2023-09-08T12:25:18;28.00;59.40
58638;DHT22;54976;51.510;7.522;2023-09-08T12:28:19;28.20;55.80
58638;DHT22;54976;51.510;7.522;2023-09-08T12:31:20;28.30;56.90
58638;DHT22;54976;51.510;7.522;2023-09-08T12:34:22;28.40;54.80
58638;DHT22;54976;51.510;7.522;2023-09-08T12:37:22;28.50;56.90
58638;DHT22;54976;51.510;7.522;2023-09-08T12:40:24;28.40;57.60
58638;DHT22;54976;51.510;7.522;2023-09-08T12:43:24;28.60;55.90
58638;DHT22;54976;51.510;7.522;2023-09-08T12:46:25;28.80;55.80
58638;DHT22;54976;51.510;7.522;2023-09-08T12:49:25;29.30;56.70
58638;DHT22;54976;51.510;7.522;2023-09-08T12:52:26;29.60;55.80
58638;DHT22;54976;51.510;7.522;2023-09-08T12:55:26;29.80;55.00
58638;DHT22;54976;51.510;7.522;2023-09-08T12:58:27;30.30;51.10
58638;DHT22;54976;51.510;7.522;2023-09-08T13:01:29;30.40;52.40
58638;DHT22;54976;51.510;7.522;2023-09-08T13:04:29;30.60;52.30
58638;DHT22;54976;51.510;7.522;2023-09-08T13:07:30;30.50;52.70
58638;DHT22;54976;51.510;7.522;2023-09-08T13:10:30;30.20;51.40
58638;DHT22;54976;51.510;7.522;2023-09-08T13:13:31;30.00;53.00
58638;DHT22;54976;51.510;7.522;2023-09-08T13:16:31;29.90;52.70
58638;DHT22;54976;51.510;7.522;2023-09-08T13:19:32;29.90;52.10
58638;DHT22;54976;51.510;7.522;2023-09-08T13:22:33;30.00;53.30
58638;DHT22;54976;51.510;7.522;2023-09-08T13:25:33;30.00;51.90
58638;DHT22;54976;51.510;7.522;2023-09-08T13:28:34;30.00;52.20
58638;DHT22;54976;51.510;7.522;2023-09-08T13:31:34;29.90;51.80
58638;DHT22;54976;51.510;7.522;2023-09-08T13:34:35;29.90;50.20
58638;DHT22;54976;51.510;7.522;2023-09-08T13:37:36;29.80;51.70
58638;DHT22;54976;51.510;7.522;2023-09-08T13:40:38;29.70;52.30
58638;DHT22;54976;51.510;7.522;2023-09-08T13:43:38;29.70;52.40
58638;DHT22;54976;51.510;7.522;2023-09-08T13:46:39;29.70;52.80
58638;DHT22;54976;51.510;7.522;2023-09-08T13:49:39;29.90;53.00
58638;DHT22;54976;51.510;7.522;2023-09-08T13:52:40;30.00;51.10
58638;DHT22;54976;51.510;7.522;2023-09-08T13:55:40;30.20;52.40
58638;DHT22;54976;51.510;7.522;2023-09-08T13:58:41;30.20;51.80
58638;DHT22;54976;51.510;7.522;2023-09-08T14:01:45;30.30;53.60
58638;DHT22;54976;51.510;7.522;2023-09-08T14:04:45;30.20;53.60
58638;DHT22;54976;51.510;7.522;2023-09-08T14:07:46;30.20;52.10
58638;DHT22;54976;51.510;7.522;2023-09-08T14:10:46;30.20;52.10
58638;DHT22;54976;51.510;7.522;2023-09-08T14:13:47;30.30;53.60
58638;DHT22;54976;51.510;7.522;2023-09-08T14:16:47;30.40;51.40
58638;DHT22;54976;51.510;7.522;2023-09-08T14:19:48;30.40;50.00
58638;DHT22;54976;51.510;7.522;2023-09-08T14:22:48;30.50;52.50
58638;DHT22;54976;51.510;7.522;2023-09-08T14:25:49;30.60;51.90
58638;DHT22;54976;51.510;7.522;2023-09-08T14:28:49;30.40;52.20
58638;DHT22;54976;51.510;7.522;2023-09-08T14:31:50;30.40;51.30
58638;DHT22;54976;51.510;7.522;2023-09-08T14:34:50;30.40;52.50
58638;DHT22;54976;51.510;7.522;2023-09-08T14:37:51;30.40;51.20
58638;DHT22;54976;51.510;7.522;2023-09-08T14:40:55;30.60;50.40
58638;DHT22;54976;51.510;7.522;2023-09-08T14:43:56;30.60;50.60
58638;DHT22;54976;51.510;7.522;2023-09-08T14:46:57;30.60;50.60
58638;DHT22;54976;51.510;7.522;2023-09-08T14:49:57;30.60;49.90
58638;DHT22;54976;51.510;7.522;2023-09-08T14:52:58;30.80;50.30
58638;DHT22;54976;51.510;7.522;2023-09-08T14:55:58;31.10;51.00
58638;DHT22;54976;51.510;7.522;2023-09-08T14:58:59;31.40;49.40
58638;DHT22;54976;51.510;7.522;2023-09-08T15:01:59;31.40;50.20
58638;DHT22;54976;51.510;7.522;2023-09-08T15:05:00;31.50;52.10
58638;DHT22;54976;51.510;7.522;2023-09-08T15:08:01;31.80;50.20
58638;DHT22;54976;51.510;7.522;2023-09-08T15:11:02;32.00;51.70
58638;DHT22;54976;51.510;7.522;2023-09-08T15:14:02;32.30;48.40
58638;DHT22;54976;51.510;7.522;2023-09-08T15:17:03;32.30;48.10
58638;DHT22;54976;51.510;7.522;2023-09-08T15:20:03;32.30;48.50
58638;DHT22;54976;51.510;7.522;2023-09-08T15:23:04;32.30;48.10
58638;DHT22;54976;51.510;7.522;2023-09-08T15:26:04;32.00;47.70
58638;DHT22;54976;51.510;7.522;2023-09-08T15:29:05;31.90;49.40
58638;DHT22;54976;51.510;7.522;2023-09-08T15:32:06;31.90;49.50
58638;DHT22;54976;51.510;7.522;2023-09-08T15:35:06;31.70;47.60
58638;DHT22;54976;51.510;7.522;2023-09-08T15:38:07;31.70;46.70
58638;DHT22;54976;51.510;7.522;2023-09-08T15:44:08;31.60;48.70
58638;DHT22;54976;51.510;7.522;2023-09-08T15:47:09;31.70;46.80
58638;DHT22;54976;51.510;7.522;2023-09-08T15:50:09;31.60;50.00
58638;DHT22;54976;51.510;7.522;2023-09-08T15:53:10;31.40;50.40
58638;DHT22;54976;51.510;7.522;2023-09-08T15:56:11;31.20;47.50
58638;DHT22;54976;51.510;7.522;2023-09-08T15:59:12;31.10;49.00
58638;DHT22;54976;51.510;7.522;2023-09-08T16:02:13;30.70;49.40
58638;DHT22;54976;51.510;7.522;2023-09-08T16:05:14;30.40;48.50
58638;DHT22;54976;51.510;7.522;2023-09-08T16:08:16;30.20;49.60
58638;DHT22;54976;51.510;7.522;2023-09-08T16:11:16;30.00;50.50
58638;DHT22;54976;51.510;7.522;2023-09-08T16:14:17;29.80;48.60
58638;DHT22;54976;51.510;7.522;2023-09-08T16:17:17;29.60;48.30
58638;DHT22;54976;51.510;7.522;2023-09-08T16:20:18;29.60;47.50
58638;DHT22;54976;51.510;7.522;2023-09-08T16:23:19;29.60;50.20
58638;DHT22;54976;51.510;7.522;2023-09-08T16:26:20;29.40;50.50
58638;DHT22;54976;51.510;7.522;2023-09-08T16:29:21;29.20;51.20
58638;DHT22;54976;51.510;7.522;2023-09-08T16:32:21;29.10;50.90
58638;DHT22;54976;51.510;7.522;2023-09-08T16:35:22;29.00;51.30
58638;DHT22;54976;51.510;7.522;2023-09-08T16:38:22;28.90;51.40
58638;DHT22;54976;51.510;7.522;2023-09-08T16:41:23;28.70;52.20
58638;DHT22;54976;51.510;7.522;2023-09-08T16:44:23;28.60;51.50
58638;DHT22;54976;51.510;7.522;2023-09-08T16:47:24;28.40;53.40
58638;DHT22;54976;51.510;7.522;2023-09-08T16:50:25;28.20;53.90
58638;DHT22;54976;51.510;7.522;2023-09-08T16:53:26;28.10;54.80
58638;DHT22;54976;51.510;7.522;2023-09-08T16:56:26;27.90;55.00
58638;DHT22;54976;51.510;7.522;2023-09-08T16:59:27;27.80;56.30
58638;DHT22;54976;51.510;7.522;2023-09-08T17:02:27;27.60;55.90
58638;DHT22;54976;51.510;7.522;2023-09-08T17:05:29;27.50;57.50
58638;DHT22;54976;51.510;7.522;2023-09-08T17:08:30;27.30;58.30
58638;DHT22;54976;51.510;7.522;2023-09-08T17:11:30;27.10;58.20
58638;DHT22;54976;51.510;7.522;2023-09-08T17:14:37;27.00;59.60
58638;DHT22;54976;51.510;7.522;2023-09-08T17:17:37;26.80;60.00
58638;DHT22;54976;51.510;7.522;2023-09-08T17:20:38;26.60;61.10
58638;DHT22;54976;51.510;7.522;2023-09-08T17:23:39;26.50;62.90
58638;DHT22;54976;51.510;7.522;2023-09-08T17:26:39;26.40;63.40
58638;DHT22;54976;51.510;7.522;2023-09-08T17:29:40;26.20;64.00
58638;DHT22;54976;51.510;7.522;2023-09-08T17:32:40;26.10;66.40
58638;DHT22;54976;51.510;7.522;2023-09-08T17:35:41;25.90;65.10
58638;DHT22;54976;51.510;7.522;2023-09-08T17:38:41;25.70;65.90
58638;DHT22;54976;51.510;7.522;2023-09-08T17:41:42;25.60;67.60
58638;DHT22;54976;51.510;7.522;2023-09-08T17:44:42;25.40;68.40
58638;DHT22;54976;51.510;7.522;2023-09-08T17:47:43;25.30;70.80
58638;DHT22;54976;51.510;7.522;2023-09-08T17:50:43;25.10;71.80
58638;DHT22;54976;51.510;7.522;2023-09-08T17:53:44;24.90;73.90
58638;DHT22;54976;51.510;7.522;2023-09-08T17:56:44;24.80;75.20
58638;DHT22;54976;51.510;7.522;2023-09-08T17:59:45;24.60;75.30
58638;DHT22;54976;51.510;7.522;2023-09-08T18:02:45;24.50;75.50
58638;DHT22;54976;51.510;7.522;2023-09-08T18:05:46;24.40;76.20
58638;DHT22;54976;51.510;7.522;2023-09-08T18:08:46;24.30;78.80
58638;DHT22;54976;51.510;7.522;2023-09-08T18:11:50;24.10;79.10
58638;DHT22;54976;51.510;7.522;2023-09-08T18:14:51;24.00;80.60
58638;DHT22;54976;51.510;7.522;2023-09-08T18:17:52;23.80;80.90
58638;DHT22;54976;51.510;7.522;2023-09-08T18:20:53;23.80;81.90
58638;DHT22;54976;51.510;7.522;2023-09-08T18:23:53;23.60;82.50
58638;DHT22;54976;51.510;7.522;2023-09-08T18:26:54;23.50;83.50
58638;DHT22;54976;51.510;7.522;2023-09-08T18:29:55;23.40;84.00
58638;DHT22;54976;51.510;7.522;2023-09-08T18:32:55;23.30;85.00
58638;DHT22;54976;51.510;7.522;2023-09-08T18:35:55;23.20;86.00
58638;DHT22;54976;51.510;7.522;2023-09-08T18:38:56;23.20;86.00
58638;DHT22;54976;51.510;7.522;2023-09-08T18:41:57;23.10;85.50
58638;DHT22;54976;51.510;7.522;2023-09-08T18:44:57;23.00;86.80
58638;DHT22;54976;51.510;7.522;2023-09-08T18:47:58;23.00;87.60
58638;DHT22;54976;51.510;7.522;2023-09-08T18:50:58;22.90;88.10
58638;DHT22;54976;51.510;7.522;2023-09-08T18:53:59;22.80;88.90
58638;DHT22;54976;51.510;7.522;2023-09-08T18:56:59;22.70;89.30
58638;DHT22;54976;51.510;7.522;2023-09-08T18:59:59;22.70;89.80
58638;DHT22;54976;51.510;7.522;2023-09-08T19:03:00;22.60;90.00
58638;DHT22;54976;51.510;7.522;2023-09-08T19:06:00;22.60;90.40
58638;DHT22;54976;51.510;7.522;2023-09-08T19:09:01;22.50;90.50
58638;DHT22;54976;51.510;7.522;2023-09-08T19:12:02;22.40;90.70
58638;DHT22;54976;51.510;7.522;2023-09-08T19:15:03;22.40;90.90
58638;DHT22;54976;51.510;7.522;2023-09-08T19:18:04;22.30;90.90
58638;DHT22;54976;51.510;7.522;2023-09-08T19:21:04;22.30;90.90